createdAt,value
2019-03-02T00:04:16.914Z,10.35
2019-03-02T00:09:22.519Z,10.34
2019-03-02T00:14:27.960Z,10.30
2019-03-02T00:19:33.457Z,10.24
2019-03-02T00:24:39.106Z,10.24
2019-03-02T00:29:45.929Z,10.27
2019-03-02T00:34:51.474Z,10.27
2019-03-02T00:39:56.928Z,10.30
2019-03-02T00:45:02.408Z,10.31
2019-03-02T00:50:08.140Z,10.33
2019-03-02T00:55:13.580Z,10.35
2019-03-02T01:00:19.079Z,10.38
2019-03-02T01:05:24.598Z,10.40
2019-03-02T01:10:30.030Z,10.39
2019-03-02T01:15:35.533Z,10.37
2019-03-02T01:20:40.894Z,10.39
2019-03-02T01:25:48.941Z,10.39
2019-03-02T01:30:53.624Z,10.38
2019-03-02T01:35:59.018Z,10.36
2019-03-02T01:41:04.396Z,10.37
2019-03-02T01:46:09.797Z,10.36
2019-03-02T01:51:15.374Z,10.36
2019-03-02T01:56:20.783Z,10.34
2019-03-02T02:01:26.351Z,10.33
2019-03-02T02:06:31.784Z,10.30
2019-03-02T02:11:37.406Z,10.31
2019-03-02T02:16:42.856Z,10.31
2019-03-02T02:21:48.305Z,10.33
2019-03-02T02:26:53.718Z,10.36
2019-03-02T02:31:59.123Z,10.37
2019-03-02T02:37:04.685Z,10.39
2019-03-02T02:42:10.118Z,10.36
2019-03-02T02:47:15.613Z,10.36
2019-03-02T02:52:27.539Z,10.33
2019-03-02T02:57:33.656Z,10.29
2019-03-02T03:02:35.364Z,10.24
2019-03-02T03:07:40.924Z,10.19
2019-03-02T03:12:46.369Z,10.18
2019-03-02T03:17:51.818Z,10.12
2019-03-02T03:22:57.293Z,10.07
2019-03-02T03:28:02.745Z,10.02
2019-03-02T03:33:08.187Z,10.00
2019-03-02T03:38:13.689Z,9.96
2019-03-02T03:43:19.315Z,9.97
2019-03-02T03:48:24.741Z,9.99
2019-03-02T03:53:32.001Z,10.00
2019-03-02T03:58:39.916Z,10.03
2019-03-02T04:03:46.953Z,10.04
2019-03-02T04:08:51.459Z,10.04
2019-03-02T04:13:56.885Z,10.08
2019-03-02T04:19:03.401Z,10.11
2019-03-02T04:24:08.769Z,10.12
2019-03-02T04:29:14.207Z,10.12
2019-03-02T04:34:21.197Z,10.11
2019-03-02T04:39:26.767Z,10.14
2019-03-02T04:44:32.404Z,10.16
2019-03-02T04:49:37.826Z,10.17
2019-03-02T04:54:43.228Z,10.20
2019-03-02T04:59:48.650Z,10.22
2019-03-02T05:04:54.110Z,10.24
2019-03-02T05:09:59.674Z,10.28
2019-03-02T05:15:06.022Z,10.32
2019-03-02T05:20:11.422Z,10.35
2019-03-02T05:25:19.082Z,10.36
2019-03-02T05:30:26.743Z,10.34
2019-03-02T05:35:30.907Z,10.32
2019-03-02T05:40:36.380Z,10.31
2019-03-02T05:45:41.755Z,10.30
2019-03-02T05:50:47.175Z,10.27
2019-03-02T05:55:53.724Z,10.24
2019-03-02T06:00:59.522Z,10.23
2019-03-02T06:06:04.943Z,10.25
2019-03-02T06:11:10.325Z,10.22
2019-03-02T06:16:18.750Z,10.23
2019-03-02T06:21:22.842Z,10.24
2019-03-02T06:26:28.299Z,10.28
2019-03-02T06:31:33.788Z,10.31
2019-03-02T06:36:41.040Z,10.34
2019-03-02T06:41:46.296Z,10.36
2019-03-02T06:46:54.746Z,10.33
2019-03-02T06:51:58.942Z,10.27
2019-03-02T06:57:04.320Z,10.30
2019-03-02T07:02:09.818Z,10.34
2019-03-02T07:07:18.617Z,10.39
2019-03-02T07:12:22.459Z,10.46
2019-03-02T07:17:50.724Z,10.54
2019-03-02T07:22:56.276Z,10.57
2019-03-02T07:28:05.622Z,10.51
2019-03-02T07:33:08.962Z,10.44
2019-03-02T07:38:16.902Z,10.37
2019-03-02T07:43:21.435Z,10.42
2019-03-02T07:48:26.906Z,10.40
2019-03-02T07:53:32.300Z,10.47
2019-03-02T07:58:37.889Z,10.62
2019-03-02T08:03:43.239Z,10.75
2019-03-02T08:08:49.268Z,10.92
2019-03-02T08:13:54.934Z,11.05
2019-03-02T08:19:03.915Z,11.11
2019-03-02T08:24:08.701Z,11.10
2019-03-02T08:29:14.105Z,11.08
2019-03-02T08:34:19.637Z,11.09
2019-03-02T08:39:25.071Z,11.22
2019-03-02T08:44:30.564Z,11.33
2019-03-02T08:49:38.437Z,11.44
2019-03-02T08:54:43.137Z,11.46
2019-03-02T08:59:48.492Z,11.54
2019-03-02T09:04:53.947Z,11.55
2019-03-02T09:09:59.446Z,11.57
2019-03-02T09:15:05.057Z,11.58
2019-03-02T09:20:10.634Z,11.73
2019-03-02T09:25:17.275Z,11.95
2019-03-02T09:30:22.760Z,12.00
2019-03-02T09:35:28.267Z,12.04
2019-03-02T09:40:33.803Z,12.09
2019-03-02T09:45:41.257Z,12.23
2019-03-02T09:50:46.488Z,12.51
2019-03-02T09:55:56.106Z,12.83
2019-03-02T10:01:01.166Z,13.06
2019-03-02T10:06:06.371Z,13.17
2019-03-02T10:11:11.895Z,13.24
2019-03-02T10:16:17.321Z,13.34
2019-03-02T10:21:22.802Z,13.47
2019-03-02T10:26:28.280Z,13.65
2019-03-02T10:31:33.748Z,13.91
2019-03-02T10:36:39.208Z,14.10
2019-03-02T10:41:44.669Z,14.30
2019-03-02T10:46:50.180Z,14.39
2019-03-02T10:51:55.835Z,14.54
2019-03-02T10:57:01.269Z,14.80
2019-03-02T11:02:06.693Z,15.21
2019-03-02T11:07:29.653Z,15.63
2019-03-02T11:12:52.808Z,16.14
2019-03-02T11:18:17.292Z,16.68
2019-03-02T11:23:40.256Z,16.93
2019-03-02T11:28:50.556Z,16.75
2019-03-02T11:34:30.385Z,16.96
2019-03-02T11:39:53.204Z,17.19
2019-03-02T11:45:13.739Z,17.44
2019-03-02T11:50:34.049Z,17.63
2019-03-02T11:55:49.966Z,17.68
2019-03-02T12:01:12.769Z,17.80
2019-03-02T12:06:31.149Z,18.03
2019-03-02T12:12:04.702Z,18.22
2019-03-02T12:17:32.278Z,18.37
2019-03-02T12:22:59.769Z,18.36
2019-03-02T12:28:22.504Z,18.24
2019-03-02T12:33:49.626Z,18.13
2019-03-02T12:39:00.237Z,17.97
2019-03-02T12:44:23.220Z,17.93
2019-03-02T12:49:48.027Z,17.85
2019-03-02T12:55:16.443Z,17.71
2019-03-02T13:00:27.370Z,17.45
2019-03-02T13:05:46.978Z,17.31
2019-03-02T13:11:01.571Z,17.43
2019-03-02T13:16:16.161Z,17.63
2019-03-02T13:21:40.549Z,17.87
2019-03-02T13:27:17.010Z,17.84
2019-03-02T13:32:39.798Z,17.70
2019-03-02T13:38:07.604Z,17.47
2019-03-02T13:43:28.892Z,17.25
2019-03-02T13:48:58.170Z,17.01
2019-03-02T13:54:13.452Z,16.77
2019-03-02T13:59:50.146Z,16.64
2019-03-02T14:05:12.913Z,16.50
2019-03-02T14:10:57.218Z,16.42
2019-03-02T14:16:35.324Z,16.37
2019-03-02T14:21:57.135Z,16.34
2019-03-02T14:27:28.076Z,16.29
2019-03-02T14:32:41.789Z,16.19
2019-03-02T14:38:04.601Z,16.02
2019-03-02T14:43:30.795Z,15.88
2019-03-02T14:48:45.895Z,15.73
2019-03-02T14:53:57.363Z,15.67
2019-03-02T14:59:39.600Z,15.58
2019-03-02T15:05:03.945Z,15.43
2019-03-02T15:10:23.076Z,15.31
2019-03-02T15:15:39.836Z,15.22
2019-03-02T15:21:04.096Z,15.11
2019-03-02T15:26:28.397Z,14.98
2019-03-02T15:31:45.915Z,14.85
2019-03-02T15:37:00.712Z,14.77
2019-03-02T15:42:28.084Z,14.72
2019-03-02T15:47:47.498Z,14.71
2019-03-02T15:53:20.272Z,14.70
2019-03-02T15:59:01.737Z,14.57
2019-03-02T16:04:35.339Z,14.50
2019-03-02T16:09:55.873Z,14.47
2019-03-02T16:15:26.488Z,14.38
2019-03-02T16:20:39.029Z,14.30
2019-03-02T16:26:13.066Z,14.26
2019-03-02T16:31:30.001Z,14.22
2019-03-02T16:36:48.196Z,14.19
2019-03-02T16:42:18.520Z,14.10
2019-03-02T16:47:41.698Z,14.01
2019-03-02T16:53:11.267Z,13.86
2019-03-02T16:58:26.018Z,13.66
2019-03-02T17:03:50.489Z,13.51
2019-03-02T17:09:12.526Z,13.41
2019-03-02T17:14:36.894Z,13.30
2019-03-02T17:20:05.619Z,13.24
2019-03-02T17:25:45.451Z,13.19
2019-03-02T17:31:09.822Z,13.17
2019-03-02T17:36:26.132Z,13.24
2019-03-02T17:42:08.852Z,13.31
2019-03-02T17:47:28.017Z,13.35
2019-03-02T17:53:01.699Z,13.36
2019-03-02T17:58:31.341Z,13.39
2019-03-02T18:03:50.842Z,13.42
2019-03-02T18:09:20.838Z,13.44
2019-03-02T18:14:49.840Z,13.46
2019-03-02T18:19:55.495Z,13.48
2019-03-02T18:25:00.956Z,13.51
2019-03-02T18:30:08.837Z,13.54
2019-03-02T18:35:14.612Z,13.57
2019-03-02T18:40:20.200Z,13.61
2019-03-02T18:45:25.720Z,13.63
2019-03-02T18:50:56.763Z,13.62
2019-03-02T18:56:02.520Z,13.59
2019-03-02T19:01:08.255Z,13.59
2019-03-02T19:06:15.728Z,13.56
2019-03-02T19:11:21.546Z,13.58
2019-03-02T19:16:27.700Z,13.61
2019-03-02T19:21:33.369Z,13.61
2019-03-02T19:26:39.358Z,13.61
2019-03-02T19:31:45.105Z,13.61
2019-03-02T19:36:50.966Z,13.63
2019-03-02T19:41:56.814Z,13.61
2019-03-02T19:47:02.537Z,13.59
2019-03-02T19:52:09.791Z,13.62
2019-03-02T19:57:15.479Z,13.58
2019-03-02T20:02:21.328Z,13.55
2019-03-02T20:07:27.010Z,13.53
2019-03-02T20:12:32.511Z,13.51
2019-03-02T20:17:38.035Z,13.51
2019-03-02T20:22:44.224Z,13.49
2019-03-02T20:27:50.172Z,13.48
2019-03-02T20:32:55.666Z,13.47
2019-03-02T20:38:01.674Z,13.41
2019-03-02T20:43:07.348Z,13.42
2019-03-02T20:48:13.729Z,13.48
2019-03-02T20:53:19.165Z,13.51
2019-03-02T20:58:25.390Z,13.52
2019-03-02T21:03:31.777Z,13.52
2019-03-02T21:08:37.901Z,13.52
2019-03-02T21:13:43.802Z,13.49
2019-03-02T21:18:49.797Z,13.40
2019-03-02T21:23:55.702Z,13.30
2019-03-02T21:29:01.754Z,13.26
2019-03-02T21:34:07.681Z,13.24
2019-03-02T21:39:13.638Z,13.19
2019-03-02T21:44:19.335Z,13.17
2019-03-02T21:49:25.198Z,13.22
2019-03-02T21:54:31.238Z,13.30
2019-03-02T21:59:37.266Z,13.32
2019-03-02T22:04:43.089Z,13.35
2019-03-02T22:09:49.081Z,13.31
2019-03-02T22:14:54.639Z,13.18
2019-03-02T22:20:00.292Z,12.99
2019-03-02T22:25:06.027Z,12.80
2019-03-02T22:30:15.809Z,12.63
2019-03-02T22:35:21.254Z,12.53
2019-03-02T22:40:27.393Z,12.44
2019-03-02T22:45:33.233Z,12.35
2019-03-02T22:50:40.299Z,12.24
2019-03-02T22:55:46.524Z,12.23
2019-03-02T23:01:50.535Z,12.28
2019-03-02T23:06:56.032Z,12.39
2019-03-02T23:12:01.422Z,12.52
2019-03-02T23:17:06.806Z,12.66
2019-03-02T23:22:12.262Z,12.76
2019-03-02T23:27:17.846Z,12.86
2019-03-02T23:32:23.269Z,12.91
2019-03-02T23:37:28.721Z,12.94
2019-03-02T23:42:34.201Z,12.95
2019-03-02T23:47:39.663Z,12.89
2019-03-02T23:52:45.066Z,12.79
2019-03-02T23:57:50.566Z,12.57
